Time;durP1;ratioP1;P1;durP2;ratioP2;P2;SDS_P1;SDS_P2;PMS_P1;PMS_P2;Temp;Humidity;BMP_temperature;BMP_pressure;BME280_temperature;BME280_humidity;BME280_pressure;Samples;Min_cycle;Max_cycle;Signal;HPM_P1;HPM_P2
2023/12/17 00:01:07;;;;;;;9.93;5.72;;;;;;;4.00;59.47;97037.75;6137849;23;20029;-85
2023/12/17 00:06:08;;;;;;;9.35;5.22;;;;;;;3.80;59.78;97043.22;6262412;22;20023;-86
2023/12/17 00:08:33;;;;;;;9.63;5.18;;;;;;;3.77;59.81;97038.25;6222106;22;20011;-85
2023/12/17 00:10:59;;;;;;;9.20;5.78;;;;;;;3.84;59.30;97040.38;6223129;22;20007;-85
2023/12/17 00:13:27;;;;;;;9.82;6.00;;;;;;;3.80;59.53;97040.66;6223265;22;20011;-85
2023/12/17 00:15:52;;;;;;;12.25;6.35;;;;;;;3.97;59.05;97027.59;6248508;22;20003;-85
2023/12/17 00:18:18;;;;;;;9.98;5.40;;;;;;;3.95;58.66;97026.06;6222240;22;20011;-85
2023/12/17 00:20:44;;;;;;;11.50;6.30;;;;;;;3.79;59.12;97014.09;6222412;22;20019;-85
2023/12/17 00:23:09;;;;;;;14.85;6.93;;;;;;;4.03;58.73;97034.13;6222966;22;20011;-85
2023/12/17 00:25:35;;;;;;;12.55;7.22;;;;;;;3.72;60.20;97026.50;6188296;22;20012;-85
2023/12/17 00:28:00;;;;;;;10.82;6.35;;;;;;;3.92;59.25;97032.19;6217702;23;20008;-86
2023/12/17 00:30:25;;;;;;;11.40;6.30;;;;;;;3.60;59.89;97021.22;6217599;23;20012;-85
2023/12/17 00:32:51;;;;;;;10.93;5.90;;;;;;;3.81;59.23;97019.13;6218047;23;20012;-85
2023/12/17 00:35:16;;;;;;;7.65;4.78;;;;;;;3.74;59.68;97026.41;6192346;23;20004;-85
2023/12/17 00:37:42;;;;;;;7.68;4.63;;;;;;;3.83;59.38;97025.88;6202090;23;20035;-85
2023/12/17 00:40:08;;;;;;;8.77;4.47;;;;;;;3.89;59.00;97022.91;6192277;23;20014;-85
2023/12/17 00:42:33;;;;;;;9.68;5.00;;;;;;;3.81;59.44;97014.84;6215881;23;20035;-85
2023/12/17 00:45:02;;;;;;;8.65;5.22;;;;;;;3.83;58.75;97018.16;6183753;23;20012;-85
2023/12/17 00:47:27;;;;;;;8.63;5.45;;;;;;;3.78;59.23;97016.75;6214768;23;20027;-85
2023/12/17 00:52:20;;;;;;;10.10;5.35;;;;;;;3.66;59.56;97011.41;6254692;22;20024;-85
2023/12/17 00:54:46;;;;;;;12.35;6.85;;;;;;;3.29;59.91;97011.00;6248241;22;20127;-85
2023/12/17 00:57:11;;;;;;;12.38;6.70;;;;;;;3.11;60.79;97007.72;6222628;22;20008;-85
2023/12/17 00:59:36;;;;;;;11.40;7.00;;;;;;;2.89;61.42;97010.69;6273180;22;20015;-85
2023/12/17 01:02:02;;;;;;;13.00;7.18;;;;;;;3.13;61.10;97008.47;6273455;22;20004;-85
2023/12/17 01:06:53;;;;;;;14.82;7.30;;;;;;;3.42;60.01;97023.97;6236064;22;20027;-85
2023/12/17 01:09:18;;;;;;;14.18;7.88;;;;;;;3.31;61.38;97016.03;6191732;23;20004;-85
2023/12/17 01:11:44;;;;;;;15.30;7.97;;;;;;;3.11;61.63;96999.19;6217148;23;20016;-85
2023/12/17 01:14:12;;;;;;;15.68;8.05;;;;;;;3.44;60.50;97018.72;6216471;23;20096;-85
2023/12/17 01:16:38;;;;;;;13.57;7.43;;;;;;;3.37;60.80;97005.41;6215943;23;20005;-85
2023/12/17 01:19:03;;;;;;;10.43;6.15;;;;;;;3.46;60.09;97004.03;6241041;22;20109;-85
2023/12/17 01:21:29;;;;;;;9.77;5.53;;;;;;;3.61;60.03;97003.13;6214508;23;20074;-85
2023/12/17 01:23:57;;;;;;;8.68;4.80;;;;;;;3.46;59.89;96992.00;6206797;23;20036;-84
2023/12/17 01:26:29;;;;;;;9.65;5.30;;;;;;;3.40;60.31;96991.53;6213068;23;20001;-85
2023/12/17 01:28:56;;;;;;;10.07;5.45;;;;;;;3.58;59.56;97008.47;6193504;23;20012;-85
2023/12/17 01:33:47;;;;;;;13.57;7.38;;;;;;;3.53;60.60;97021.59;6243358;23;20038;-85
2023/12/17 01:36:13;;;;;;;13.88;7.50;;;;;;;3.41;60.18;97006.03;6217002;23;20018;-85
2023/12/17 01:38:38;;;;;;;15.48;7.88;;;;;;;3.36;60.52;97024.31;6216810;23;20008;-85
2023/12/17 01:41:04;;;;;;;16.90;8.70;;;;;;;3.44;60.68;97024.69;6183655;23;20091;-84
2023/12/17 01:43:30;;;;;;;24.75;11.80;;;;;;;3.50;60.32;97021.78;6191529;23;20005;-85
2023/12/17 01:45:56;;;;;;;18.77;9.50;;;;;;;3.42;61.01;97033.44;6217034;23;20004;-85
2023/12/17 01:48:25;;;;;;;18.42;9.75;;;;;;;3.42;60.45;97036.81;6212661;23;20039;-85
2023/12/17 01:50:51;;;;;;;20.58;10.02;;;;;;;3.10;61.11;97030.94;6217608;23;20007;-85
2023/12/17 01:53:21;;;;;;;31.40;13.57;;;;;;;2.99;62.13;97036.72;6185955;23;20008;-85
2023/12/17 01:55:49;;;;;;;24.80;11.55;;;;;;;3.16;62.02;97042.63;6187057;23;20013;-85
2023/12/17 01:58:16;;;;;;;19.88;10.32;;;;;;;3.18;61.00;97041.66;6211443;23;20013;-85
2023/12/17 02:00:42;;;;;;;18.00;9.63;;;;;;;2.92;61.34;97030.25;6216131;23;20007;-85
2023/12/17 02:03:07;;;;;;;22.45;11.00;;;;;;;2.43;63.07;97053.47;6216919;23;20000;-85
2023/12/17 02:05:36;;;;;;;20.92;10.32;;;;;;;2.49;62.90;97040.28;6189699;23;20115;-85
2023/12/17 02:08:03;;;;;;;25.65;12.10;;;;;;;2.63;63.29;97054.97;6216718;23;20003;-85
2023/12/17 02:10:29;;;;;;;30.02;12.65;;;;;;;2.32;63.97;97044.63;6192106;23;20008;-85
2023/12/17 02:12:55;;;;;;;24.38;13.15;;;;;;;2.38;64.27;97042.59;6216682;23;20004;-85
2023/12/17 02:15:20;;;;;;;26.75;12.88;;;;;;;2.80;63.54;97044.59;6216731;23;20008;-85
2023/12/17 02:17:46;;;;;;;25.95;11.90;;;;;;;2.71;63.64;97024.56;6204596;23;20012;-85
2023/12/17 02:20:11;;;;;;;22.98;12.00;;;;;;;3.03;62.53;97032.22;6211436;23;20012;-85
2023/12/17 02:22:38;;;;;;;25.20;11.93;;;;;;;2.81;63.29;97022.31;6190370;23;20036;-85
2023/12/17 02:25:04;;;;;;;24.33;11.65;;;;;;;2.88;63.08;97031.34;6215617;23;20065;-85
2023/12/17 02:29:55;;;;;;;25.05;11.98;;;;;;;2.90;62.78;97027.75;6205670;22;20019;-85
2023/12/17 02:32:22;;;;;;;33.72;14.77;;;;;;;3.11;63.41;97040.31;6222108;22;20097;-85
2023/12/17 02:34:48;;;;;;;55.35;20.63;;;;;;;3.07;63.66;97049.94;6221932;22;20039;-84
2023/12/17 02:37:14;;;;;;;61.55;22.10;;;;;;;3.23;63.42;97041.38;6247031;22;20010;-85
2023/12/17 02:39:40;;;;;;;68.18;21.90;;;;;;;3.36;63.74;97047.47;6221995;22;20054;-85
2023/12/17 02:44:31;;;;;;;46.90;19.47;;;;;;;3.43;63.26;97035.09;6241806;23;20027;-85
2023/12/17 02:46:57;;;;;;;29.90;14.02;;;;;;;3.39;62.93;97036.16;6216281;23;20248;-85
2023/12/17 02:49:23;;;;;;;31.10;14.10;;;;;;;3.37;62.16;97020.00;6211863;23;20008;-85
2023/12/17 02:51:50;;;;;;;24.23;11.77;;;;;;;3.46;61.33;97024.63;6191716;23;20012;-85
2023/12/17 02:54:17;;;;;;;17.13;8.77;;;;;;;3.45;61.16;97028.94;6190679;23;20008;-84
2023/12/17 02:56:45;;;;;;;14.40;6.45;;;;;;;3.22;61.77;97021.69;6216277;23;20019;-85
2023/12/17 02:59:15;;;;;;;9.85;5.50;;;;;;;2.93;61.91;97027.59;6191002;23;20112;-85
2023/12/17 03:01:41;;;;;;;12.00;5.55;;;;;;;3.03;61.61;97021.94;6216166;23;20149;-85
2023/12/17 03:04:06;;;;;;;10.38;5.60;;;;;;;3.23;60.55;97018.22;6237278;22;20022;-85
2023/12/17 03:06:32;;;;;;;11.55;5.75;;;;;;;3.08;60.63;97033.59;6221342;22;20008;-85
2023/12/17 03:08:57;;;;;;;16.63;7.97;;;;;;;2.96;61.25;97021.44;6221727;22;20063;-85
2023/12/17 03:11:23;;;;;;;19.92;9.00;;;;;;;3.05;61.16;97026.06;6221611;22;20015;-85
2023/12/17 03:13:48;;;;;;;20.88;10.48;;;;;;;3.06;61.03;97039.75;6246567;22;20008;-85
2023/12/17 03:16:14;;;;;;;33.17;14.55;;;;;;;3.13;61.28;97023.88;6196008;22;20011;-85
2023/12/17 03:21:07;;;;;;;25.20;10.73;;;;;;;2.75;61.42;97023.47;6210548;23;20025;-85
2023/12/17 03:23:36;;;;;;;22.67;11.40;;;;;;;2.61;62.27;97025.94;6214179;23;20008;-85
2023/12/17 03:26:03;;;;;;;28.52;12.00;;;;;;;2.42;62.51;97036.38;6190697;23;20011;-85
2023/12/17 03:28:28;;;;;;;33.53;13.95;;;;;;;2.48;63.33;97025.81;6216080;23;20000;-85
2023/12/17 03:30:54;;;;;;;27.85;12.80;;;;;;;2.64;62.65;97033.50;6216302;23;20031;-85
2023/12/17 03:33:19;;;;;;;41.42;16.17;;;;;;;2.35;64.22;97026.47;6185897;23;20059;-86
2023/12/17 03:35:46;;;;;;;38.70;16.77;;;;;;;2.18;64.73;97023.13;6179345;23;20015;-85
2023/12/17 03:38:12;;;;;;;35.65;13.95;;;;;;;2.56;63.05;97031.34;6188538;23;20075;-85
2023/12/17 03:40:38;;;;;;;40.53;15.70;;;;;;;2.61;62.69;97031.94;6167557;23;20017;-85
2023/12/17 03:43:03;;;;;;;36.13;15.18;;;;;;;2.45;63.02;97021.66;6209910;23;20011;-85
2023/12/17 03:45:29;;;;;;;38.47;15.65;;;;;;;2.48;62.95;97028.38;6193375;23;20011;-85
2023/12/17 03:47:54;;;;;;;41.88;17.10;;;;;;;2.39;63.40;97019.41;6183145;23;20024;-85
2023/12/17 03:50:20;;;;;;;38.53;14.95;;;;;;;2.40;63.24;97021.09;6188435;23;20008;-85
2023/12/17 03:52:47;;;;;;;37.53;15.15;;;;;;;2.51;62.99;97025.63;6181162;23;20008;-85
2023/12/17 03:55:13;;;;;;;46.45;17.45;;;;;;;2.65;62.55;97041.13;6213098;23;20023;-85
2023/12/17 03:57:39;;;;;;;40.08;15.50;;;;;;;2.43;63.59;97038.06;6217589;23;20012;-85
2023/12/17 04:00:05;;;;;;;35.90;14.57;;;;;;;2.35;63.48;97013.63;6218217;23;20094;-85
2023/12/17 04:02:31;;;;;;;21.35;10.07;;;;;;;2.66;62.28;97024.78;6193197;23;20027;-85
2023/12/17 04:04:57;;;;;;;12.02;6.07;;;;;;;2.33;63.48;97018.00;6217614;23;20066;-84
2023/12/17 04:07:26;;;;;;;5.65;3.08;;;;;;;2.49;61.93;97004.34;6218319;23;20042;-85
2023/12/17 04:09:52;;;;;;;5.30;3.00;;;;;;;2.66;62.03;97003.41;6182562;23;20012;-84
2023/12/17 04:17:18;;;;;;;8.98;5.00;;;;;;;2.91;60.77;97008.88;6260015;22;20330;-86
2023/12/17 04:19:46;;;;;;;8.85;4.90;;;;;;;2.96;60.70;97011.16;6223191;22;20008;-85
2023/12/17 04:22:12;;;;;;;10.18;5.15;;;;;;;2.97;60.94;97005.13;6249168;22;20013;-85
2023/12/17 04:24:37;;;;;;;9.27;4.20;;;;;;;3.28;59.14;96999.06;6248088;22;20027;-86
2023/12/17 04:29:28;;;;;;;4.78;2.80;;;;;;;3.12;59.90;97001.69;6216608;23;20024;-85
2023/12/17 04:31:54;;;;;;;4.55;2.50;;;;;;;2.92;60.37;96987.38;6217602;23;20008;-85
2023/12/17 04:34:19;;;;;;;4.28;2.50;;;;;;;3.07;60.69;96997.72;6217869;23;20000;-85
2023/12/17 04:36:44;;;;;;;5.45;2.92;;;;;;;3.04;60.33;96998.69;6205590;23;20008;-85
2023/12/17 04:41:39;;;;;;;7.75;3.92;;;;;;;2.77;60.50;97002.84;6236230;22;20020;-85
2023/12/17 04:44:06;;;;;;;9.30;4.70;;;;;;;2.78;61.21;97012.19;6192396;23;20123;-86
2023/12/17 04:46:32;;;;;;;9.73;5.07;;;;;;;2.66;61.57;96996.53;6215628;23;20065;-85
2023/12/17 04:49:00;;;;;;;11.75;6.35;;;;;;;2.80;61.20;97003.50;6192039;23;20087;-85
2023/12/17 04:51:26;;;;;;;14.98;7.75;;;;;;;2.98;61.04;97013.66;6242681;23;20008;-85
2023/12/17 04:59:02;;;;;;;18.73;8.98;;;;;;;3.16;61.18;97022.91;6262434;22;20028;-86
2023/12/17 05:01:29;;;;;;;16.92;8.48;;;;;;;3.08;60.77;97028.44;6197327;22;20015;-85
2023/12/17 05:03:55;;;;;;;16.13;8.10;;;;;;;3.02;60.43;97015.94;6198551;22;20063;-85
2023/12/17 05:06:20;;;;;;;17.85;8.65;;;;;;;2.99;61.25;97026.44;6248047;22;20104;-85
2023/12/17 05:08:46;;;;;;;22.60;10.63;;;;;;;3.04;60.92;97021.00;6247726;22;19996;-85
2023/12/17 05:11:11;;;;;;;18.73;9.40;;;;;;;3.03;60.92;97029.66;6197191;22;20007;-84
2023/12/17 05:13:36;;;;;;;19.52;9.02;;;;;;;2.99;60.95;97030.72;6247152;22;20003;-85
2023/12/17 05:16:02;;;;;;;25.17;10.20;;;;;;;2.91;60.35;97028.56;6245944;22;20023;-85
2023/12/17 05:18:28;;;;;;;20.40;9.10;;;;;;;3.09;60.91;97042.97;6197132;22;20070;-85
2023/12/17 05:20:53;;;;;;;19.50;9.10;;;;;;;2.96;60.46;97054.84;6197426;22;20007;-85
2023/12/17 05:23:19;;;;;;;18.63;9.27;;;;;;;3.24;60.03;97048.19;6222346;22;20011;-85
2023/12/17 05:25:44;;;;;;;18.77;8.90;;;;;;;3.18;60.18;97040.78;6197401;22;20089;-85
2023/12/17 05:28:11;;;;;;;17.85;8.60;;;;;;;3.09;60.06;97039.59;6222362;22;20011;-85
2023/12/17 05:30:38;;;;;;;17.73;7.78;;;;;;;3.13;58.83;97035.94;6197625;22;20011;-85
2023/12/17 05:33:07;;;;;;;18.17;7.57;;;;;;;2.79;59.75;97047.25;6247400;22;20007;-85
2023/12/17 05:35:32;;;;;;;16.40;7.30;;;;;;;2.77;60.95;97052.47;6222426;22;20014;-85
2023/12/17 05:37:58;;;;;;;17.33;8.15;;;;;;;2.61;61.16;97038.78;6213057;23;20036;-85
2023/12/17 05:40:23;;;;;;;20.35;9.13;;;;;;;2.85;60.50;97049.47;6191905;23;20044;-85
2023/12/17 05:42:49;;;;;;;23.52;10.57;;;;;;;2.72;61.55;97060.44;6166959;23;20004;-85
2023/12/17 05:45:14;;;;;;;27.70;12.13;;;;;;;2.85;60.55;97054.63;6166762;23;20061;-85
2023/12/17 05:50:06;;;;;;;30.98;12.90;;;;;;;2.83;61.02;97041.03;6234225;22;20040;-84
2023/12/17 05:52:31;;;;;;;115.88;19.77;;;;;;;2.70;62.07;97044.28;6216306;23;20012;-85
2023/12/17 05:54:57;;;;;;;46.15;16.95;;;;;;;2.65;63.01;97050.59;6190966;23;20014;-85
2023/12/17 05:57:22;;;;;;;36.47;14.52;;;;;;;2.72;62.40;97054.47;6191814;23;20011;-86
2023/12/17 05:59:48;;;;;;;33.53;13.70;;;;;;;2.69;62.52;97039.22;6191910;23;20008;-85
2023/12/17 06:02:13;;;;;;;32.83;13.30;;;;;;;2.85;61.50;97031.50;6241915;23;20074;-87
2023/12/17 06:04:39;;;;;;;39.42;14.48;;;;;;;2.85;61.60;97034.88;6191572;23;20016;-86
2023/12/17 06:07:04;;;;;;;26.38;10.77;;;;;;;2.84;61.64;97033.25;6191902;23;20008;-85
2023/12/17 06:11:57;;;;;;;33.80;12.48;;;;;;;2.83;61.95;97026.44;6215810;23;20024;-86
2023/12/17 06:14:23;;;;;;;65.85;15.10;;;;;;;2.80;61.74;97030.91;6191950;23;20011;-84
2023/12/17 06:16:49;;;;;;;152.52;18.85;;;;;;;2.67;62.27;97005.91;6205554;23;20004;-85
2023/12/17 06:19:14;;;;;;;257.25;20.02;;;;;;;2.65;63.09;97023.16;6211855;23;20067;-85
2023/12/17 06:21:41;;;;;;;365.20;23.63;;;;;;;2.74;62.68;97032.06;6216143;23;20056;-85
2023/12/17 06:24:07;;;;;;;387.60;25.23;;;;;;;2.74;62.71;97022.66;6214053;22;20012;-85
2023/12/17 06:26:34;;;;;;;216.73;19.95;;;;;;;2.88;62.96;97026.19;6247057;22;20018;-85
2023/12/17 06:28:59;;;;;;;369.58;24.00;;;;;;;2.65;63.13;97014.63;6272690;22;20000;-85
2023/12/17 06:31:28;;;;;;;286.30;23.17;;;;;;;2.59;63.79;97022.63;6272789;22;20075;-85
2023/12/17 06:33:53;;;;;;;294.02;23.77;;;;;;;2.44;65.05;97034.59;6247559;22;20109;-84
2023/12/17 06:36:20;;;;;;;305.65;26.45;;;;;;;2.48;64.20;97025.81;6196227;23;20020;-86
2023/12/17 06:38:45;;;;;;;102.63;16.90;;;;;;;2.39;63.77;97018.59;6162018;23;20021;-86
2023/12/17 06:41:11;;;;;;;39.72;14.43;;;;;;;2.17;63.76;97014.63;6162103;23;20098;-85
2023/12/17 06:43:40;;;;;;;29.30;12.35;;;;;;;2.40;62.69;97007.41;6185512;23;20084;-85
2023/12/17 06:46:06;;;;;;;26.52;11.25;;;;;;;2.57;62.47;97022.75;6185382;23;20016;-85
2023/12/17 06:48:31;;;;;;;24.17;10.07;;;;;;;2.54;61.80;97013.44;6214840;22;20104;-85
2023/12/17 06:50:56;;;;;;;21.58;9.75;;;;;;;2.63;61.23;97017.28;6137157;23;20076;-85
2023/12/17 06:53:22;;;;;;;19.08;8.07;;;;;;;2.60;61.14;97019.19;6161203;23;20016;-85
2023/12/17 06:55:47;;;;;;;13.32;5.93;;;;;;;2.35;61.73;97008.47;6137704;23;20020;-85
2023/12/17 06:58:12;;;;;;;7.25;4.07;;;;;;;2.70;60.63;97018.59;6161822;23;20009;-85
2023/12/17 07:03:14;;;;;;;5.63;3.35;;;;;;;2.29;62.16;97015.69;6188132;23;20035;-85
2023/12/17 07:05:42;;;;;;;7.60;4.07;;;;;;;2.63;61.25;97004.41;6216306;23;20036;-85
2023/12/17 07:08:07;;;;;;;6.82;3.67;;;;;;;2.85;60.78;97005.78;6192152;23;20027;-84
2023/12/17 07:10:34;;;;;;;10.20;5.20;;;;;;;2.92;61.65;97019.97;6191051;23;20015;-85
2023/12/17 07:12:59;;;;;;;10.18;4.97;;;;;;;3.06;60.53;97020.00;6191302;23;20011;-85
2023/12/17 07:15:24;;;;;;;14.35;6.80;;;;;;;3.06;60.63;97021.75;6220128;22;20016;-85
2023/12/17 07:17:53;;;;;;;14.75;7.25;;;;;;;3.32;60.17;97012.56;6221542;22;20024;-85
2023/12/17 07:20:18;;;;;;;14.00;6.97;;;;;;;3.37;60.36;97009.72;6246733;22;20003;-85
2023/12/17 07:22:43;;;;;;;13.80;7.68;;;;;;;3.57;59.12;97018.84;6246580;22;20014;-85
2023/12/17 07:25:09;;;;;;;14.32;7.03;;;;;;;3.27;59.97;97015.38;6221374;22;20007;-85
2023/12/17 07:30:10;;;;;;;11.27;5.50;;;;;;;3.57;59.74;97021.44;6262900;22;20019;-84
2023/12/17 07:32:38;;;;;;;9.40;4.55;;;;;;;3.56;59.01;97018.03;6221039;22;20016;-84
2023/12/17 07:35:06;;;;;;;9.75;4.90;;;;;;;3.56;59.85;97024.91;6221940;22;20011;-85
2023/12/17 07:37:35;;;;;;;9.68;5.00;;;;;;;3.49;60.73;97025.28;6222221;22;20008;-85
2023/12/17 07:40:01;;;;;;;10.27;5.18;;;;;;;3.65;59.82;97024.38;6246534;22;20051;-85
2023/12/17 07:44:52;;;;;;;14.02;6.95;;;;;;;3.67;59.62;97025.94;6272350;22;20034;-85
2023/12/17 07:47:20;;;;;;;14.55;7.25;;;;;;;3.75;59.67;97022.09;6221547;22;20008;-85
2023/12/17 07:49:46;;;;;;;14.73;7.30;;;;;;;3.77;59.65;97013.38;6221552;22;20014;-85
2023/12/17 07:52:15;;;;;;;13.85;7.25;;;;;;;3.83;59.02;97023.28;6246028;22;20012;-85
2023/12/17 07:59:41;;;;;;;15.35;7.75;;;;;;;3.69;60.24;97015.53;6272731;22;20085;-85
2023/12/17 08:02:07;;;;;;;13.73;7.05;;;;;;;3.87;61.06;97026.50;6221245;22;20011;-85
2023/12/17 08:04:35;;;;;;;13.05;6.88;;;;;;;4.62;59.15;97015.94;6246165;22;20000;-85
2023/12/17 08:07:04;;;;;;;12.25;6.68;;;;;;;5.56;56.95;97030.53;6197609;22;20057;-85
2023/12/17 08:09:29;;;;;;;12.10;7.00;;;;;;;6.21;55.09;97012.38;6246592;22;20010;-86
2023/12/17 08:26:36;;;;;;;13.70;7.97;;;;;;;9.80;46.57;97024.00;6266154;22;20027;-86
2023/12/17 08:29:01;;;;;;;13.10;8.63;;;;;;;9.89;46.64;97014.63;6248466;22;20011;-86
2023/12/17 08:31:27;;;;;;;12.55;8.23;;;;;;;10.42;46.49;97006.66;6248588;22;20004;-85
2023/12/17 08:41:31;;;;;;;14.30;9.25;;;;;;;8.92;47.84;97012.97;6240854;22;20043;-85
2023/12/17 08:43:56;;;;;;;15.15;9.10;;;;;;;8.46;50.58;97029.59;6217339;23;20043;-85
2023/12/17 08:46:22;;;;;;;16.58;10.63;;;;;;;9.20;48.33;97034.13;6192365;23;20086;-85
2023/12/17 08:48:47;;;;;;;15.15;10.50;;;;;;;8.98;49.60;97025.44;6217674;23;20003;-84
2023/12/17 08:51:13;;;;;;;15.52;9.95;;;;;;;9.35;48.14;97034.66;6217777;23;20008;-85
2023/12/17 08:53:40;;;;;;;17.23;9.60;;;;;;;9.47;47.29;97035.41;6242965;23;20028;-85
2023/12/17 08:56:07;;;;;;;16.50;9.65;;;;;;;8.85;48.83;97037.75;6217107;23;20000;-85
2023/12/17 08:58:33;;;;;;;17.17;11.02;;;;;;;7.66;53.05;97043.41;6215879;23;20004;-85
2023/12/17 09:00:58;;;;;;;16.35;10.55;;;;;;;7.11;52.87;97027.56;6216877;23;20015;-86
2023/12/17 09:03:24;;;;;;;17.95;11.27;;;;;;;7.84;50.31;97036.00;6217439;23;20064;-85
2023/12/17 09:08:25;;;;;;;19.67;11.07;;;;;;;6.92;53.93;97046.19;6212145;23;20032;-85
2023/12/17 09:10:50;;;;;;;17.10;10.85;;;;;;;6.45;55.31;97030.53;6163064;23;20013;-86
2023/12/17 09:13:15;;;;;;;18.65;11.23;;;;;;;6.79;55.02;97030.72;6212187;23;20004;-85
2023/12/17 09:15:41;;;;;;;18.75;11.23;;;;;;;6.92;53.96;97027.25;6161798;23;20008;-84
2023/12/17 09:18:06;;;;;;;17.52;11.18;;;;;;;6.89;55.43;97055.91;6211600;23;20011;-85
2023/12/17 09:20:34;;;;;;;19.73;11.45;;;;;;;7.17;54.60;97050.41;6211587;23;20004;-85
2023/12/17 09:33:11;;;;;;;17.20;10.93;;;;;;;7.88;52.43;97055.59;6240103;22;20012;-84
2023/12/17 09:35:40;;;;;;;17.23;11.10;;;;;;;8.08;51.55;97038.53;6242034;23;20016;-84
2023/12/17 09:38:05;;;;;;;17.58;11.05;;;;;;;8.37;50.12;97041.44;6216092;23;20035;-84
2023/12/17 09:40:32;;;;;;;18.08;11.18;;;;;;;7.27;53.58;97054.94;6216401;23;20032;-84
2023/12/17 09:42:58;;;;;;;17.42;11.18;;;;;;;7.17;54.51;97034.06;6207105;23;20034;-85
2023/12/17 09:45:24;;;;;;;15.65;10.10;;;;;;;7.31;53.02;97046.84;6242053;23;20000;-84
2023/12/17 09:47:51;;;;;;;17.40;10.50;;;;;;;6.99;54.75;97038.81;6242033;23;20055;-84
2023/12/17 09:50:16;;;;;;;18.42;11.48;;;;;;;6.95;54.61;97040.81;6211288;23;20022;-84
2023/12/17 09:52:44;;;;;;;18.00;11.10;;;;;;;6.94;54.21;97026.19;6191718;23;20007;-85
2023/12/17 09:55:14;;;;;;;18.85;10.43;;;;;;;6.75;54.64;97034.44;6216609;23;20046;-84
2023/12/17 09:57:40;;;;;;;20.88;11.10;;;;;;;6.58;55.71;97032.25;6241715;23;20013;-85
2023/12/17 10:00:10;;;;;;;18.00;11.02;;;;;;;6.46;55.85;97032.16;6241680;23;20012;-85
2023/12/17 10:02:36;;;;;;;17.83;10.32;;;;;;;6.57;54.77;97028.00;6242382;23;20026;-85
2023/12/17 10:05:01;;;;;;;19.00;11.00;;;;;;;6.31;56.47;97027.25;6258998;22;20045;-84
2023/12/17 10:07:26;;;;;;;19.52;11.48;;;;;;;6.17;56.52;97016.09;6197093;22;20007;-85
2023/12/17 10:09:52;;;;;;;19.73;11.55;;;;;;;5.93;57.15;97010.00;6221959;22;20027;-84
2023/12/17 10:12:18;;;;;;;20.30;11.50;;;;;;;6.11;57.34;97016.53;6221937;22;20020;-85
2023/12/17 10:14:43;;;;;;;20.67;11.45;;;;;;;5.96;57.29;96994.31;6221494;22;20042;-85
2023/12/17 10:17:11;;;;;;;21.80;11.98;;;;;;;6.14;56.57;97007.72;6247029;22;20034;-85
2023/12/17 10:19:37;;;;;;;21.60;12.25;;;;;;;5.94;57.04;97002.16;6247020;22;19999;-86
2023/12/17 10:22:07;;;;;;;23.77;12.73;;;;;;;5.57;57.90;97008.97;6222087;22;20070;-86
2023/12/17 10:32:54;;;;;;;24.77;12.43;;;;;;;5.01;59.85;96981.63;6270759;22;20031;-85
2023/12/17 10:35:23;;;;;;;25.40;12.82;;;;;;;5.01;59.91;96984.22;6221258;22;20054;-85
2023/12/17 10:37:57;;;;;;;23.75;12.95;;;;;;;4.96;60.98;96980.28;6246602;22;20007;-85
2023/12/17 10:40:24;;;;;;;23.23;12.15;;;;;;;5.15;60.50;96967.00;6178017;23;20095;-85
2023/12/17 10:42:55;;;;;;;22.95;11.95;;;;;;;5.56;59.38;96971.16;6204477;23;20012;-84
2023/12/17 10:45:21;;;;;;;23.65;12.35;;;;;;;5.19;61.00;96956.38;6210855;23;20020;-85
2023/12/17 10:47:56;;;;;;;25.20;13.13;;;;;;;5.07;60.11;96954.63;6204060;23;20087;-84
2023/12/17 10:50:26;;;;;;;23.88;12.40;;;;;;;5.79;58.89;96959.31;6211963;23;20005;-85
2023/12/17 10:52:52;;;;;;;22.92;11.35;;;;;;;5.75;59.34;96957.84;6188846;23;20026;-85
2023/12/17 10:55:19;;;;;;;25.52;12.27;;;;;;;5.83;58.78;96950.41;6214975;23;20083;-85
2023/12/17 11:03:04;;;;;;;23.63;12.10;;;;;;;6.08;58.90;96946.97;6240694;22;20125;-85
2023/12/17 11:05:29;;;;;;;21.00;10.98;;;;;;;6.34;58.61;96941.72;6215727;23;20011;-85
2023/12/17 11:12:55;;;;;;;21.33;11.57;;;;;;;6.34;58.25;96946.91;6234754;22;20269;-85
2023/12/17 11:15:22;;;;;;;21.63;11.93;;;;;;;6.70;57.15;96934.88;6186337;23;20020;-85
2023/12/17 11:17:52;;;;;;;22.17;12.23;;;;;;;6.63;56.82;96937.09;6204459;23;20012;-85
2023/12/17 11:20:17;;;;;;;22.92;12.25;;;;;;;6.55;58.08;96937.63;6185827;23;20009;-84
2023/12/17 11:30:32;;;;;;;21.33;11.48;;;;;;;7.39;56.76;96943.56;6240771;22;20024;-85
2023/12/17 11:33:04;;;;;;;20.30;11.65;;;;;;;7.33;55.76;96923.31;6189876;23;20023;-85
2023/12/17 11:35:32;;;;;;;20.48;11.38;;;;;;;7.10;56.51;96924.19;6212662;23;20009;-85
2023/12/17 11:37:58;;;;;;;19.45;10.48;;;;;;;7.22;55.87;96916.34;6215103;23;20004;-85
2023/12/17 11:40:27;;;;;;;21.92;12.15;;;;;;;7.21;55.71;96932.78;6215828;23;20008;-87
2023/12/17 11:42:58;;;;;;;24.08;12.80;;;;;;;7.16;55.98;96926.31;6206731;23;20023;-85
2023/12/17 11:45:47;;;;;;;23.55;12.48;;;;;;;6.89;56.50;96934.34;6211993;23;20009;-86
2023/12/17 11:56:03;;;;;;;21.13;11.73;;;;;;;6.81;57.30;96922.78;6273303;22;20020;-85
2023/12/17 11:58:29;;;;;;;21.42;12.32;;;;;;;7.03;56.63;96923.81;6249608;22;20083;-85
2023/12/17 12:06:09;;;;;;;17.60;10.70;;;;;;;7.42;55.83;96929.53;6183883;22;20079;-85
2023/12/17 12:08:48;;;;;;;22.02;11.60;;;;;;;7.25;55.24;96917.88;6158257;23;20008;-85
2023/12/17 12:11:15;;;;;;;20.55;11.43;;;;;;;7.21;55.52;96927.63;6158389;23;20009;-85
2023/12/17 12:13:48;;;;;;;19.17;11.05;;;;;;;7.13;56.22;96935.13;6134460;23;20009;-85
2023/12/17 12:16:14;;;;;;;23.77;11.80;;;;;;;7.17;55.98;96909.84;6158736;23;20004;-86
2023/12/17 12:18:41;;;;;;;19.98;11.18;;;;;;;7.11;55.72;96923.25;6157605;23;20001;-86
2023/12/17 12:28:55;;;;;;;20.38;11.80;;;;;;;6.47;57.14;96908.91;6243504;22;20020;-85
2023/12/17 12:31:21;;;;;;;22.73;12.25;;;;;;;6.53;57.04;96895.56;6218064;23;20054;-85
2023/12/17 12:34:03;;;;;;;19.40;11.63;;;;;;;6.30;57.46;96891.19;6193083;23;20019;-86
2023/12/17 12:36:45;;;;;;;21.85;12.23;;;;;;;6.67;57.89;96899.72;6195072;23;20114;-85
2023/12/17 12:39:12;;;;;;;21.15;11.65;;;;;;;6.42;57.36;96885.97;6217519;23;20011;-85
2023/12/17 12:46:51;;;;;;;22.63;12.10;;;;;;;6.46;58.05;96894.34;6220303;23;20024;-85
2023/12/17 12:49:17;;;;;;;21.98;12.50;;;;;;;6.60;57.55;96901.91;6217536;23;20000;-85
2023/12/17 12:51:42;;;;;;;22.75;12.18;;;;;;;6.42;58.05;96896.31;6192519;23;20050;-86
2023/12/17 12:54:09;;;;;;;21.40;11.65;;;;;;;6.31;58.37;96883.34;6192537;23;20001;-85
2023/12/17 12:56:35;;;;;;;23.58;12.85;;;;;;;6.58;57.45;96898.63;6192785;23;20019;-84
2023/12/17 12:59:03;;;;;;;21.27;12.25;;;;;;;6.46;57.69;96892.56;6192645;23;20004;-85
2023/12/17 13:01:29;;;;;;;23.15;12.38;;;;;;;6.49;56.93;96885.53;6193552;23;20016;-85
2023/12/17 13:03:58;;;;;;;21.17;12.32;;;;;;;6.13;58.36;96877.75;6217453;23;20014;-85
2023/12/17 13:06:24;;;;;;;23.35;11.88;;;;;;;6.28;58.40;96885.31;6217594;23;20031;-85
2023/12/17 13:11:15;;;;;;;22.70;12.53;;;;;;;6.14;58.25;96884.53;6241006;22;20495;-86
2023/12/17 13:13:42;;;;;;;24.40;12.35;;;;;;;6.19;58.08;96882.47;6193737;23;20242;-85
2023/12/17 13:16:08;;;;;;;24.10;12.85;;;;;;;6.08;58.87;96895.31;6217492;23;20000;-85
2023/12/17 13:18:33;;;;;;;24.35;12.77;;;;;;;6.20;58.37;96888.44;6192287;23;20008;-85
2023/12/17 13:23:37;;;;;;;24.42;13.40;;;;;;;6.04;59.06;96894.72;6242887;22;20081;-86
2023/12/17 13:26:03;;;;;;;25.17;12.82;;;;;;;6.04;58.78;96899.06;6217713;23;20059;-86
2023/12/17 13:33:43;;;;;;;25.67;13.90;;;;;;;5.69;60.07;96879.03;6241033;22;20016;-86
2023/12/17 13:36:10;;;;;;;24.75;12.85;;;;;;;5.83;60.17;96878.13;6217802;23;20024;-85
2023/12/17 13:38:35;;;;;;;25.88;13.10;;;;;;;6.01;59.27;96874.25;6217244;23;20004;-85
2023/12/17 13:41:01;;;;;;;25.38;13.57;;;;;;;6.08;59.34;96866.91;6216910;23;20020;-86
2023/12/17 13:43:26;;;;;;;26.90;14.23;;;;;;;6.13;59.86;96880.31;6192076;23;20022;-85
2023/12/17 13:45:51;;;;;;;23.27;13.10;;;;;;;6.32;58.27;96872.09;6217699;23;20003;-85
2023/12/17 13:48:17;;;;;;;27.00;13.68;;;;;;;6.06;58.92;96884.28;6217567;23;20004;-86
2023/12/17 13:50:43;;;;;;;27.27;13.93;;;;;;;5.85;59.61;96878.81;6192619;23;20012;-86
2023/12/17 14:00:44;;;;;;;25.98;13.32;;;;;;;5.68;60.29;96873.06;6237048;22;20024;-84